sensor_id;sensor_type;location;lat;lon;timestamp;P1;durP1;ratioP1;P2;durP2;ratioP2
10769;SDS011;5437;50.852;4.438;2022-07-10T00:00:19;2.80;;;1.85;;
10769;SDS011;5437;50.852;4.438;2022-07-10T00:02:48;2.38;;;1.80;;
10769;SDS011;5437;50.852;4.438;2022-07-10T00:05:25;4.95;;;2.00;;
10769;SDS011;5437;50.852;4.438;2022-07-10T00:07:54;3.45;;;1.95;;
10769;SDS011;5437;50.852;4.438;2022-07-10T00:10:21;3.65;;;2.00;;
10769;SDS011;5437;50.852;4.438;2022-07-10T00:12:50;2.40;;;1.67;;
10769;SDS011;5437;50.852;4.438;2022-07-10T00:15:20;4.07;;;1.90;;
10769;SDS011;5437;50.852;4.438;2022-07-10T00:18:04;3.35;;;2.00;;
10769;SDS011;5437;50.852;4.438;2022-07-10T00:20:31;5.10;;;2.28;;
10769;SDS011;5437;50.852;4.438;2022-07-10T00:22:57;3.13;;;2.10;;
10769;SDS011;5437;50.852;4.438;2022-07-10T00:25:35;4.13;;;2.40;;
10769;SDS011;5437;50.852;4.438;2022-07-10T00:28:03;4.78;;;2.72;;
10769;SDS011;5437;50.852;4.438;2022-07-10T00:30:30;3.92;;;2.97;;
10769;SDS011;5437;50.852;4.438;2022-07-10T00:32:56;4.20;;;3.00;;
10769;SDS011;5437;50.852;4.438;2022-07-10T00:35:28;6.20;;;3.30;;
10769;SDS011;5437;50.852;4.438;2022-07-10T00:37:54;6.38;;;3.42;;
10769;SDS011;5437;50.852;4.438;2022-07-10T00:40:23;6.22;;;3.67;;
10769;SDS011;5437;50.852;4.438;2022-07-10T00:42:50;6.38;;;3.78;;
10769;SDS011;5437;50.852;4.438;2022-07-10T00:45:18;6.43;;;3.92;;
10769;SDS011;5437;50.852;4.438;2022-07-10T00:47:47;5.93;;;3.95;;
10769;SDS011;5437;50.852;4.438;2022-07-10T00:50:19;7.60;;;4.03;;
10769;SDS011;5437;50.852;4.438;2022-07-10T00:52:46;8.75;;;4.32;;
10769;SDS011;5437;50.852;4.438;2022-07-10T00:55:12;5.25;;;3.83;;
10769;SDS011;5437;50.852;4.438;2022-07-10T00:57:39;6.88;;;3.75;;
10769;SDS011;5437;50.852;4.438;2022-07-10T01:00:06;4.65;;;3.45;;
10769;SDS011;5437;50.852;4.438;2022-07-10T01:02:34;3.60;;;2.97;;
10769;SDS011;5437;50.852;4.438;2022-07-10T01:05:00;5.13;;;3.67;;
10769;SDS011;5437;50.852;4.438;2022-07-10T01:07:27;3.28;;;2.58;;
10769;SDS011;5437;50.852;4.438;2022-07-10T01:09:58;5.03;;;2.60;;
10769;SDS011;5437;50.852;4.438;2022-07-10T01:12:27;2.78;;;2.40;;
10769;SDS011;5437;50.852;4.438;2022-07-10T01:14:55;6.38;;;2.90;;
10769;SDS011;5437;50.852;4.438;2022-07-10T01:17:24;3.90;;;2.30;;
10769;SDS011;5437;50.852;4.438;2022-07-10T01:19:54;3.72;;;2.35;;
10769;SDS011;5437;50.852;4.438;2022-07-10T01:25:02;4.43;;;2.10;;
10769;SDS011;5437;50.852;4.438;2022-07-10T01:27:34;3.72;;;1.90;;
10769;SDS011;5437;50.852;4.438;2022-07-10T01:30:03;2.58;;;1.70;;
10769;SDS011;5437;50.852;4.438;2022-07-10T01:32:36;3.58;;;2.00;;
10769;SDS011;5437;50.852;4.438;2022-07-10T01:35:09;4.20;;;1.90;;
10769;SDS011;5437;50.852;4.438;2022-07-10T01:37:43;5.85;;;2.05;;
10769;SDS011;5437;50.852;4.438;2022-07-10T01:40:15;2.83;;;1.92;;
10769;SDS011;5437;50.852;4.438;2022-07-10T01:42:42;2.75;;;1.90;;
10769;SDS011;5437;50.852;4.438;2022-07-10T01:45:09;3.20;;;1.75;;
10769;SDS011;5437;50.852;4.438;2022-07-10T01:47:35;3.30;;;1.80;;
10769;SDS011;5437;50.852;4.438;2022-07-10T01:50:01;3.38;;;1.88;;
10769;SDS011;5437;50.852;4.438;2022-07-10T01:52:30;4.03;;;1.70;;
10769;SDS011;5437;50.852;4.438;2022-07-10T01:54:58;4.43;;;1.70;;
10769;SDS011;5437;50.852;4.438;2022-07-10T01:57:25;3.72;;;1.80;;
10769;SDS011;5437;50.852;4.438;2022-07-10T01:59:51;3.47;;;1.80;;
10769;SDS011;5437;50.852;4.438;2022-07-10T02:02:20;3.35;;;1.55;;
10769;SDS011;5437;50.852;4.438;2022-07-10T02:04:46;3.25;;;2.00;;
10769;SDS011;5437;50.852;4.438;2022-07-10T02:07:13;2.92;;;1.63;;
10769;SDS011;5437;50.852;4.438;2022-07-10T02:09:40;4.30;;;1.88;;
10769;SDS011;5437;50.852;4.438;2022-07-10T02:12:10;3.35;;;1.60;;
10769;SDS011;5437;50.852;4.438;2022-07-10T02:14:39;2.13;;;1.38;;
10769;SDS011;5437;50.852;4.438;2022-07-10T02:17:06;2.28;;;1.60;;
10769;SDS011;5437;50.852;4.438;2022-07-10T02:19:36;3.75;;;1.80;;
10769;SDS011;5437;50.852;4.438;2022-07-10T02:22:05;3.25;;;1.60;;
10769;SDS011;5437;50.852;4.438;2022-07-10T02:24:34;2.05;;;1.50;;
10769;SDS011;5437;50.852;4.438;2022-07-10T02:27:08;2.83;;;1.50;;
10769;SDS011;5437;50.852;4.438;2022-07-10T02:29:36;2.40;;;1.40;;
10769;SDS011;5437;50.852;4.438;2022-07-10T02:32:03;4.75;;;1.83;;
10769;SDS011;5437;50.852;4.438;2022-07-10T02:34:31;3.90;;;1.75;;
10769;SDS011;5437;50.852;4.438;2022-07-10T02:37:00;3.90;;;1.70;;
10769;SDS011;5437;50.852;4.438;2022-07-10T02:39:28;3.00;;;1.50;;
10769;SDS011;5437;50.852;4.438;2022-07-10T02:41:54;2.85;;;1.73;;
10769;SDS011;5437;50.852;4.438;2022-07-10T02:44:23;3.25;;;1.73;;
10769;SDS011;5437;50.852;4.438;2022-07-10T02:46:49;3.55;;;1.90;;
10769;SDS011;5437;50.852;4.438;2022-07-10T02:49:15;3.40;;;1.85;;
10769;SDS011;5437;50.852;4.438;2022-07-10T02:51:44;3.40;;;1.80;;
10769;SDS011;5437;50.852;4.438;2022-07-10T02:54:12;1.80;;;1.52;;
10769;SDS011;5437;50.852;4.438;2022-07-10T02:56:39;3.75;;;1.65;;
10769;SDS011;5437;50.852;4.438;2022-07-10T02:59:05;1.92;;;1.50;;
10769;SDS011;5437;50.852;4.438;2022-07-10T03:01:31;3.50;;;1.60;;
10769;SDS011;5437;50.852;4.438;2022-07-10T03:03:58;3.35;;;1.70;;
10769;SDS011;5437;50.852;4.438;2022-07-10T03:06:26;2.17;;;1.60;;
10769;SDS011;5437;50.852;4.438;2022-07-10T03:08:53;2.20;;;1.80;;
10769;SDS011;5437;50.852;4.438;2022-07-10T03:11:20;2.78;;;1.63;;
10769;SDS011;5437;50.852;4.438;2022-07-10T03:13:49;4.35;;;1.77;;
10769;SDS011;5437;50.852;4.438;2022-07-10T03:16:15;3.25;;;1.75;;
10769;SDS011;5437;50.852;4.438;2022-07-10T03:19:02;3.20;;;1.98;;
10769;SDS011;5437;50.852;4.438;2022-07-10T03:21:48;3.55;;;1.85;;
10769;SDS011;5437;50.852;4.438;2022-07-10T03:24:17;5.35;;;1.73;;
10769;SDS011;5437;50.852;4.438;2022-07-10T03:26:43;4.10;;;2.00;;
10769;SDS011;5437;50.852;4.438;2022-07-10T03:29:12;2.90;;;1.75;;
10769;SDS011;5437;50.852;4.438;2022-07-10T03:31:43;5.85;;;2.03;;
10769;SDS011;5437;50.852;4.438;2022-07-10T03:34:09;2.97;;;1.48;;
10769;SDS011;5437;50.852;4.438;2022-07-10T03:36:48;2.40;;;1.75;;
10769;SDS011;5437;50.852;4.438;2022-07-10T03:39:15;4.32;;;1.73;;
10769;SDS011;5437;50.852;4.438;2022-07-10T03:41:41;3.05;;;1.80;;
10769;SDS011;5437;50.852;4.438;2022-07-10T03:44:07;4.38;;;1.85;;
10769;SDS011;5437;50.852;4.438;2022-07-10T03:46:33;3.38;;;1.60;;
10769;SDS011;5437;50.852;4.438;2022-07-10T03:51:35;3.42;;;1.70;;
10769;SDS011;5437;50.852;4.438;2022-07-10T03:54:02;3.38;;;1.60;;
10769;SDS011;5437;50.852;4.438;2022-07-10T03:56:30;1.77;;;1.50;;
10769;SDS011;5437;50.852;4.438;2022-07-10T03:59:15;3.17;;;1.60;;
10769;SDS011;5437;50.852;4.438;2022-07-10T04:01:41;3.05;;;1.60;;
10769;SDS011;5437;50.852;4.438;2022-07-10T04:04:07;2.38;;;1.70;;
10769;SDS011;5437;50.852;4.438;2022-07-10T04:06:33;3.70;;;2.03;;
10769;SDS011;5437;50.852;4.438;2022-07-10T04:09:03;2.97;;;1.50;;
10769;SDS011;5437;50.852;4.438;2022-07-10T04:11:29;3.30;;;1.63;;
10769;SDS011;5437;50.852;4.438;2022-07-10T04:13:55;3.05;;;1.73;;
10769;SDS011;5437;50.852;4.438;2022-07-10T04:16:27;3.30;;;1.80;;
10769;SDS011;5437;50.852;4.438;2022-07-10T04:18:53;3.20;;;1.60;;
10769;SDS011;5437;50.852;4.438;2022-07-10T04:21:22;2.05;;;1.85;;
10769;SDS011;5437;50.852;4.438;2022-07-10T04:23:51;3.17;;;1.83;;
10769;SDS011;5437;50.852;4.438;2022-07-10T04:26:18;2.08;;;1.88;;
10769;SDS011;5437;50.852;4.438;2022-07-10T04:28:47;3.00;;;1.98;;
10769;SDS011;5437;50.852;4.438;2022-07-10T04:31:15;2.55;;;1.80;;
10769;SDS011;5437;50.852;4.438;2022-07-10T04:34:27;2.90;;;1.92;;
10769;SDS011;5437;50.852;4.438;2022-07-10T04:36:47;3.00;;;2.00;;
10769;SDS011;5437;50.852;4.438;2022-07-10T04:39:15;4.72;;;1.98;;
10769;SDS011;5437;50.852;4.438;2022-07-10T04:44:35;3.38;;;1.70;;
10769;SDS011;5437;50.852;4.438;2022-07-10T04:47:02;4.07;;;2.00;;
10769;SDS011;5437;50.852;4.438;2022-07-10T04:49:30;2.17;;;1.63;;
10769;SDS011;5437;50.852;4.438;2022-07-10T04:54:41;3.80;;;1.95;;
10769;SDS011;5437;50.852;4.438;2022-07-10T04:57:13;2.78;;;1.52;;
10769;SDS011;5437;50.852;4.438;2022-07-10T04:59:41;3.72;;;1.88;;
10769;SDS011;5437;50.852;4.438;2022-07-10T05:02:08;2.63;;;1.98;;
10769;SDS011;5437;50.852;4.438;2022-07-10T05:04:39;2.53;;;1.77;;
10769;SDS011;5437;50.852;4.438;2022-07-10T05:07:07;3.05;;;1.80;;
10769;SDS011;5437;50.852;4.438;2022-07-10T05:09:33;2.25;;;1.70;;
10769;SDS011;5437;50.852;4.438;2022-07-10T05:11:59;2.60;;;1.75;;
10769;SDS011;5437;50.852;4.438;2022-07-10T05:14:28;2.75;;;1.95;;
10769;SDS011;5437;50.852;4.438;2022-07-10T05:16:54;2.30;;;1.80;;
10769;SDS011;5437;50.852;4.438;2022-07-10T05:19:23;3.20;;;1.80;;
10769;SDS011;5437;50.852;4.438;2022-07-10T05:21:50;3.33;;;1.63;;
10769;SDS011;5437;50.852;4.438;2022-07-10T05:24:19;4.60;;;1.90;;
10769;SDS011;5437;50.852;4.438;2022-07-10T05:26:51;3.20;;;1.90;;
10769;SDS011;5437;50.852;4.438;2022-07-10T05:29:17;3.47;;;1.98;;
10769;SDS011;5437;50.852;4.438;2022-07-10T05:31:45;4.97;;;1.60;;
10769;SDS011;5437;50.852;4.438;2022-07-10T05:34:11;3.28;;;1.83;;
10769;SDS011;5437;50.852;4.438;2022-07-10T05:36:40;3.28;;;1.50;;
10769;SDS011;5437;50.852;4.438;2022-07-10T05:39:09;2.55;;;1.80;;
10769;SDS011;5437;50.852;4.438;2022-07-10T05:41:49;3.97;;;2.28;;
10769;SDS011;5437;50.852;4.438;2022-07-10T05:44:15;3.67;;;2.08;;
10769;SDS011;5437;50.852;4.438;2022-07-10T05:46:44;5.72;;;1.98;;
10769;SDS011;5437;50.852;4.438;2022-07-10T05:49:11;2.47;;;1.70;;
10769;SDS011;5437;50.852;4.438;2022-07-10T05:51:40;3.88;;;1.83;;
10769;SDS011;5437;50.852;4.438;2022-07-10T05:54:07;5.03;;;2.00;;
10769;SDS011;5437;50.852;4.438;2022-07-10T05:56:45;3.97;;;2.20;;
10769;SDS011;5437;50.852;4.438;2022-07-10T05:59:12;4.60;;;2.40;;
10769;SDS011;5437;50.852;4.438;2022-07-10T06:01:38;3.45;;;2.15;;
10769;SDS011;5437;50.852;4.438;2022-07-10T06:06:48;3.90;;;2.13;;
10769;SDS011;5437;50.852;4.438;2022-07-10T06:09:14;2.92;;;2.10;;
10769;SDS011;5437;50.852;4.438;2022-07-10T06:11:44;5.50;;;2.35;;
10769;SDS011;5437;50.852;4.438;2022-07-10T06:14:13;2.15;;;1.90;;
10769;SDS011;5437;50.852;4.438;2022-07-10T06:16:51;4.50;;;1.80;;
10769;SDS011;5437;50.852;4.438;2022-07-10T06:19:20;3.05;;;2.00;;
10769;SDS011;5437;50.852;4.438;2022-07-10T06:21:46;5.13;;;1.85;;
10769;SDS011;5437;50.852;4.438;2022-07-10T06:24:12;3.13;;;1.95;;
10769;SDS011;5437;50.852;4.438;2022-07-10T06:26:38;4.68;;;1.90;;
10769;SDS011;5437;50.852;4.438;2022-07-10T06:29:07;3.03;;;1.58;;
10769;SDS011;5437;50.852;4.438;2022-07-10T06:31:38;3.30;;;1.90;;
10769;SDS011;5437;50.852;4.438;2022-07-10T06:34:09;4.82;;;1.90;;
10769;SDS011;5437;50.852;4.438;2022-07-10T06:36:38;2.97;;;1.88;;
10769;SDS011;5437;50.852;4.438;2022-07-10T06:39:08;4.93;;;2.00;;
10769;SDS011;5437;50.852;4.438;2022-07-10T06:41:46;2.28;;;1.88;;
10769;SDS011;5437;50.852;4.438;2022-07-10T06:44:14;4.80;;;1.83;;
10769;SDS011;5437;50.852;4.438;2022-07-10T06:46:41;4.05;;;2.00;;
10769;SDS011;5437;50.852;4.438;2022-07-10T06:52:07;4.43;;;1.60;;
10769;SDS011;5437;50.852;4.438;2022-07-10T06:54:37;1.80;;;1.55;;
10769;SDS011;5437;50.852;4.438;2022-07-10T06:57:03;2.92;;;1.65;;
10769;SDS011;5437;50.852;4.438;2022-07-10T06:59:32;3.15;;;1.67;;
10769;SDS011;5437;50.852;4.438;2022-07-10T07:02:01;3.35;;;1.60;;
10769;SDS011;5437;50.852;4.438;2022-07-10T07:04:31;2.85;;;1.63;;
10769;SDS011;5437;50.852;4.438;2022-07-10T07:07:02;2.83;;;1.73;;
10769;SDS011;5437;50.852;4.438;2022-07-10T07:09:36;3.08;;;1.60;;
10769;SDS011;5437;50.852;4.438;2022-07-10T07:12:02;5.30;;;1.73;;
10769;SDS011;5437;50.852;4.438;2022-07-10T07:14:29;4.43;;;1.50;;
10769;SDS011;5437;50.852;4.438;2022-07-10T07:16:58;3.05;;;1.67;;
10769;SDS011;5437;50.852;4.438;2022-07-10T07:19:37;2.85;;;1.60;;
10769;SDS011;5437;50.852;4.438;2022-07-10T07:22:22;3.13;;;1.48;;
10769;SDS011;5437;50.852;4.438;2022-07-10T07:25:08;4.55;;;1.80;;
10769;SDS011;5437;50.852;4.438;2022-07-10T07:27:38;3.15;;;1.60;;
10769;SDS011;5437;50.852;4.438;2022-07-10T07:30:16;3.70;;;1.63;;
10769;SDS011;5437;50.852;4.438;2022-07-10T07:32:45;2.00;;;1.40;;
10769;SDS011;5437;50.852;4.438;2022-07-10T07:35:15;3.28;;;1.73;;
10769;SDS011;5437;50.852;4.438;2022-07-10T07:37:53;4.05;;;1.77;;
10769;SDS011;5437;50.852;4.438;2022-07-10T07:40:24;3.30;;;1.30;;
10769;SDS011;5437;50.852;4.438;2022-07-10T07:42:53;4.80;;;1.58;;
10769;SDS011;5437;50.852;4.438;2022-07-10T07:45:21;3.72;;;1.65;;
10769;SDS011;5437;50.852;4.438;2022-07-10T07:50:20;2.72;;;1.60;;
10769;SDS011;5437;50.852;4.438;2022-07-10T07:55:32;3.58;;;1.83;;
10769;SDS011;5437;50.852;4.438;2022-07-10T07:58:04;3.15;;;1.52;;
10769;SDS011;5437;50.852;4.438;2022-07-10T08:00:30;2.65;;;1.55;;
10769;SDS011;5437;50.852;4.438;2022-07-10T08:03:02;4.10;;;1.80;;
10769;SDS011;5437;50.852;4.438;2022-07-10T08:05:32;3.78;;;1.90;;
10769;SDS011;5437;50.852;4.438;2022-07-10T08:07:59;2.70;;;1.67;;
10769;SDS011;5437;50.852;4.438;2022-07-10T08:10:31;5.78;;;1.98;;
10769;SDS011;5437;50.852;4.438;2022-07-10T08:13:05;5.53;;;2.08;;
10769;SDS011;5437;50.852;4.438;2022-07-10T08:15:31;5.28;;;2.35;;
10769;SDS011;5437;50.852;4.438;2022-07-10T08:18:01;5.65;;;2.30;;
10769;SDS011;5437;50.852;4.438;2022-07-10T08:20:31;2.55;;;1.92;;
10769;SDS011;5437;50.852;4.438;2022-07-10T08:23:00;3.65;;;1.92;;
10769;SDS011;5437;50.852;4.438;2022-07-10T08:25:28;2.92;;;2.35;;
10769;SDS011;5437;50.852;4.438;2022-07-10T08:28:40;3.33;;;2.00;;
10769;SDS011;5437;50.852;4.438;2022-07-10T08:30:47;3.60;;;1.90;;
10769;SDS011;5437;50.852;4.438;2022-07-10T08:33:19;3.45;;;1.90;;
10769;SDS011;5437;50.852;4.438;2022-07-10T08:36:14;2.50;;;1.70;;
10769;SDS011;5437;50.852;4.438;2022-07-10T08:38:54;3.40;;;1.67;;
10769;SDS011;5437;50.852;4.438;2022-07-10T08:41:26;2.17;;;1.70;;
10769;SDS011;5437;50.852;4.438;2022-07-10T08:43:53;2.83;;;2.00;;
10769;SDS011;5437;50.852;4.438;2022-07-10T08:46:19;3.13;;;1.75;;
10769;SDS011;5437;50.852;4.438;2022-07-10T08:48:47;1.83;;;1.60;;
10769;SDS011;5437;50.852;4.438;2022-07-10T08:52:05;3.75;;;1.75;;
10769;SDS011;5437;50.852;4.438;2022-07-10T08:54:08;3.33;;;1.80;;
10769;SDS011;5437;50.852;4.438;2022-07-10T08:56:46;4.25;;;1.70;;
10769;SDS011;5437;50.852;4.438;2022-07-10T08:59:38;1.52;;;1.40;;
10769;SDS011;5437;50.852;4.438;2022-07-10T09:04:49;2.65;;;1.50;;
10769;SDS011;5437;50.852;4.438;2022-07-10T09:10:11;2.92;;;1.38;;
10769;SDS011;5437;50.852;4.438;2022-07-10T09:15:49;4.95;;;1.70;;
10769;SDS011;5437;50.852;4.438;2022-07-10T09:18:40;3.42;;;1.70;;
10769;SDS011;5437;50.852;4.438;2022-07-10T09:21:13;3.88;;;1.70;;
10769;SDS011;5437;50.852;4.438;2022-07-10T09:23:39;3.03;;;1.50;;
10769;SDS011;5437;50.852;4.438;2022-07-10T09:26:09;3.35;;;1.80;;
10769;SDS011;5437;50.852;4.438;2022-07-10T09:28:38;3.45;;;1.95;;
10769;SDS011;5437;50.852;4.438;2022-07-10T09:31:04;4.00;;;1.80;;
10769;SDS011;5437;50.852;4.438;2022-07-10T09:36:13;2.75;;;1.70;;
10769;SDS011;5437;50.852;4.438;2022-07-10T09:38:51;2.70;;;1.73;;
10769;SDS011;5437;50.852;4.438;2022-07-10T09:41:31;2.95;;;2.00;;
10769;SDS011;5437;50.852;4.438;2022-07-10T09:44:05;2.65;;;1.83;;
10769;SDS011;5437;50.852;4.438;2022-07-10T09:49:21;4.15;;;2.10;;
10769;SDS011;5437;50.852;4.438;2022-07-10T09:51:56;3.78;;;1.90;;
10769;SDS011;5437;50.852;4.438;2022-07-10T09:54:25;4.05;;;2.00;;
10769;SDS011;5437;50.852;4.438;2022-07-10T09:57:09;3.53;;;1.90;;
10769;SDS011;5437;50.852;4.438;2022-07-10T10:00:19;2.75;;;2.05;;
10769;SDS011;5437;50.852;4.438;2022-07-10T10:06:14;3.67;;;2.00;;
10769;SDS011;5437;50.852;4.438;2022-07-10T10:08:51;2.20;;;2.00;;
10769;SDS011;5437;50.852;4.438;2022-07-10T10:11:22;4.53;;;2.35;;
10769;SDS011;5437;50.852;4.438;2022-07-10T10:13:51;3.42;;;2.22;;
10769;SDS011;5437;50.852;4.438;2022-07-10T10:16:21;2.60;;;2.10;;
10769;SDS011;5437;50.852;4.438;2022-07-10T10:19:08;4.43;;;2.10;;
10769;SDS011;5437;50.852;4.438;2022-07-10T10:21:55;4.15;;;2.40;;
10769;SDS011;5437;50.852;4.438;2022-07-10T10:24:25;3.97;;;2.22;;
10769;SDS011;5437;50.852;4.438;2022-07-10T10:26:52;2.83;;;2.40;;
10769;SDS011;5437;50.852;4.438;2022-07-10T10:29:23;4.47;;;2.30;;
10769;SDS011;5437;50.852;4.438;2022-07-10T10:31:49;2.47;;;2.28;;
10769;SDS011;5437;50.852;4.438;2022-07-10T10:37:07;3.15;;;2.45;;
10769;SDS011;5437;50.852;4.438;2022-07-10T10:39:54;4.65;;;2.67;;
10769;SDS011;5437;50.852;4.438;2022-07-10T10:42:43;3.00;;;2.70;;
10769;SDS011;5437;50.852;4.438;2022-07-10T10:45:24;2.78;;;2.30;;
10769;SDS011;5437;50.852;4.438;2022-07-10T10:48:05;2.95;;;2.60;;
10769;SDS011;5437;50.852;4.438;2022-07-10T10:50:59;2.97;;;2.42;;
10769;SDS011;5437;50.852;4.438;2022-07-10T10:53:26;2.95;;;2.30;;
10769;SDS011;5437;50.852;4.438;2022-07-10T10:58:42;3.53;;;2.40;;
10769;SDS011;5437;50.852;4.438;2022-07-10T11:06:49;2.92;;;2.72;;
10769;SDS011;5437;50.852;4.438;2022-07-10T11:09:30;3.50;;;2.67;;
10769;SDS011;5437;50.852;4.438;2022-07-10T11:12:06;3.13;;;2.53;;
10769;SDS011;5437;50.852;4.438;2022-07-10T11:17:40;5.18;;;2.88;;
10769;SDS011;5437;50.852;4.438;2022-07-10T11:20:10;3.30;;;2.67;;
10769;SDS011;5437;50.852;4.438;2022-07-10T11:22:43;3.25;;;2.60;;
10769;SDS011;5437;50.852;4.438;2022-07-10T11:25:25;3.42;;;2.38;;
10769;SDS011;5437;50.852;4.438;2022-07-10T11:28:09;2.40;;;2.20;;
10769;SDS011;5437;50.852;4.438;2022-07-10T11:30:46;3.08;;;2.47;;
10769;SDS011;5437;50.852;4.438;2022-07-10T11:33:39;3.33;;;2.65;;
10769;SDS011;5437;50.852;4.438;2022-07-10T11:36:11;3.13;;;2.35;;
10769;SDS011;5437;50.852;4.438;2022-07-10T11:38:38;3.00;;;2.53;;
10769;SDS011;5437;50.852;4.438;2022-07-10T11:41:17;3.10;;;2.42;;
10769;SDS011;5437;50.852;4.438;2022-07-10T11:46:39;3.42;;;2.50;;
10769;SDS011;5437;50.852;4.438;2022-07-10T11:49:07;2.85;;;2.50;;
10769;SDS011;5437;50.852;4.438;2022-07-10T11:51:42;3.40;;;2.60;;
10769;SDS011;5437;50.852;4.438;2022-07-10T11:54:12;5.38;;;2.65;;
10769;SDS011;5437;50.852;4.438;2022-07-10T11:56:42;2.70;;;2.50;;
10769;SDS011;5437;50.852;4.438;2022-07-10T11:59:26;3.53;;;2.45;;
10769;SDS011;5437;50.852;4.438;2022-07-10T12:02:03;2.75;;;2.50;;
10769;SDS011;5437;50.852;4.438;2022-07-10T12:04:46;3.17;;;2.88;;
10769;SDS011;5437;50.852;4.438;2022-07-10T12:07:14;2.42;;;2.00;;
10769;SDS011;5437;50.852;4.438;2022-07-10T12:09:43;2.08;;;1.90;;
10769;SDS011;5437;50.852;4.438;2022-07-10T12:12:34;2.03;;;1.80;;
10769;SDS011;5437;50.852;4.438;2022-07-10T12:20:54;2.72;;;2.13;;
10769;SDS011;5437;50.852;4.438;2022-07-10T12:23:43;2.38;;;2.15;;
10769;SDS011;5437;50.852;4.438;2022-07-10T12:32:28;2.58;;;1.77;;
10769;SDS011;5437;50.852;4.438;2022-07-10T12:35:06;2.10;;;1.90;;
10769;SDS011;5437;50.852;4.438;2022-07-10T12:37:49;2.67;;;1.90;;
10769;SDS011;5437;50.852;4.438;2022-07-10T12:40:33;2.95;;;1.70;;
10769;SDS011;5437;50.852;4.438;2022-07-10T12:43:26;4.32;;;1.77;;
10769;SDS011;5437;50.852;4.438;2022-07-10T12:49:00;2.72;;;1.63;;
10769;SDS011;5437;50.852;4.438;2022-07-10T12:54:36;1.95;;;1.60;;
10769;SDS011;5437;50.852;4.438;2022-07-10T13:00:15;3.40;;;1.60;;
10769;SDS011;5437;50.852;4.438;2022-07-10T13:02:44;1.98;;;1.50;;
10769;SDS011;5437;50.852;4.438;2022-07-10T13:05:37;2.03;;;1.60;;
10769;SDS011;5437;50.852;4.438;2022-07-10T13:08:06;3.72;;;1.50;;
10769;SDS011;5437;50.852;4.438;2022-07-10T13:10:42;2.38;;;1.52;;
10769;SDS011;5437;50.852;4.438;2022-07-10T13:13:38;1.40;;;1.30;;
10769;SDS011;5437;50.852;4.438;2022-07-10T13:16:21;3.45;;;1.50;;
10769;SDS011;5437;50.852;4.438;2022-07-10T13:18:57;1.58;;;1.38;;
10769;SDS011;5437;50.852;4.438;2022-07-10T13:21:34;2.80;;;1.75;;
10769;SDS011;5437;50.852;4.438;2022-07-10T13:27:01;2.58;;;1.77;;
10769;SDS011;5437;50.852;4.438;2022-07-10T13:29:35;1.63;;;1.52;;
10769;SDS011;5437;50.852;4.438;2022-07-10T13:34:51;3.38;;;1.70;;
10769;SDS011;5437;50.852;4.438;2022-07-10T13:37:28;3.38;;;1.65;;
10769;SDS011;5437;50.852;4.438;2022-07-10T13:40:03;1.67;;;1.40;;
10769;SDS011;5437;50.852;4.438;2022-07-10T13:42:42;1.23;;;1.20;;
10769;SDS011;5437;50.852;4.438;2022-07-10T13:45:19;1.30;;;1.27;;
10769;SDS011;5437;50.852;4.438;2022-07-10T13:47:50;1.60;;;1.42;;
10769;SDS011;5437;50.852;4.438;2022-07-10T13:50:30;1.95;;;1.30;;
10769;SDS011;5437;50.852;4.438;2022-07-10T13:52:58;1.80;;;1.35;;
10769;SDS011;5437;50.852;4.438;2022-07-10T13:55:36;2.20;;;1.60;;
10769;SDS011;5437;50.852;4.438;2022-07-10T13:58:06;1.40;;;1.30;;
10769;SDS011;5437;50.852;4.438;2022-07-10T14:00:44;2.15;;;1.38;;
10769;SDS011;5437;50.852;4.438;2022-07-10T14:03:16;1.67;;;1.17;;
10769;SDS011;5437;50.852;4.438;2022-07-10T14:05:42;2.03;;;1.25;;
10769;SDS011;5437;50.852;4.438;2022-07-10T14:08:12;2.03;;;1.48;;
10769;SDS011;5437;50.852;4.438;2022-07-10T14:10:38;2.97;;;1.30;;
10769;SDS011;5437;50.852;4.438;2022-07-10T14:16:00;2.08;;;1.60;;
10769;SDS011;5437;50.852;4.438;2022-07-10T14:18:32;1.60;;;1.40;;
10769;SDS011;5437;50.852;4.438;2022-07-10T14:21:13;1.35;;;1.30;;
10769;SDS011;5437;50.852;4.438;2022-07-10T14:23:45;2.13;;;1.30;;
10769;SDS011;5437;50.852;4.438;2022-07-10T14:29:18;1.35;;;1.30;;
10769;SDS011;5437;50.852;4.438;2022-07-10T14:31:52;2.85;;;1.50;;
10769;SDS011;5437;50.852;4.438;2022-07-10T14:34:25;1.52;;;1.38;;
10769;SDS011;5437;50.852;4.438;2022-07-10T14:36:54;2.65;;;1.48;;
10769;SDS011;5437;50.852;4.438;2022-07-10T14:39:26;2.00;;;1.58;;
10769;SDS011;5437;50.852;4.438;2022-07-10T14:41:55;1.67;;;1.30;;
10769;SDS011;5437;50.852;4.438;2022-07-10T14:44:23;2.05;;;1.30;;
10769;SDS011;5437;50.852;4.438;2022-07-10T14:46:59;2.50;;;1.65;;
10769;SDS011;5437;50.852;4.438;2022-07-10T14:49:25;1.55;;;1.45;;
10769;SDS011;5437;50.852;4.438;2022-07-10T14:51:58;1.90;;;1.20;;
10769;SDS011;5437;50.852;4.438;2022-07-10T14:57:07;2.85;;;1.33;;
10769;SDS011;5437;50.852;4.438;2022-07-10T15:02:12;2.17;;;1.23;;
10769;SDS011;5437;50.852;4.438;2022-07-10T15:04:41;2.60;;;1.30;;
10769;SDS011;5437;50.852;4.438;2022-07-10T15:07:22;1.20;;;1.10;;
10769;SDS011;5437;50.852;4.438;2022-07-10T15:09:55;2.97;;;1.20;;
10769;SDS011;5437;50.852;4.438;2022-07-10T15:12:38;1.65;;;1.40;;
10769;SDS011;5437;50.852;4.438;2022-07-10T15:15:11;1.48;;;1.23;;
10769;SDS011;5437;50.852;4.438;2022-07-10T15:17:43;1.30;;;1.20;;
10769;SDS011;5437;50.852;4.438;2022-07-10T15:20:10;1.98;;;1.30;;
10769;SDS011;5437;50.852;4.438;2022-07-10T15:22:39;1.55;;;1.15;;
10769;SDS011;5437;50.852;4.438;2022-07-10T15:25:14;2.03;;;1.40;;
10769;SDS011;5437;50.852;4.438;2022-07-10T15:27:40;1.20;;;1.10;;
10769;SDS011;5437;50.852;4.438;2022-07-10T15:30:07;1.33;;;1.20;;
10769;SDS011;5437;50.852;4.438;2022-07-10T15:32:41;1.70;;;1.33;;
10769;SDS011;5437;50.852;4.438;2022-07-10T15:35:22;2.17;;;1.30;;
10769;SDS011;5437;50.852;4.438;2022-07-10T15:37:59;1.75;;;1.48;;
10769;SDS011;5437;50.852;4.438;2022-07-10T15:40:31;3.17;;;1.40;;
10769;SDS011;5437;50.852;4.438;2022-07-10T15:43:08;1.77;;;1.20;;
10769;SDS011;5437;50.852;4.438;2022-07-10T15:45:42;1.50;;;1.40;;
10769;SDS011;5437;50.852;4.438;2022-07-10T15:48:08;1.60;;;1.30;;
10769;SDS011;5437;50.852;4.438;2022-07-10T15:53:20;1.55;;;1.17;;
10769;SDS011;5437;50.852;4.438;2022-07-10T15:56:15;3.33;;;1.33;;
10769;SDS011;5437;50.852;4.438;2022-07-10T15:58:52;4.20;;;1.77;;
10769;SDS011;5437;50.852;4.438;2022-07-10T16:01:24;1.30;;;1.17;;
10769;SDS011;5437;50.852;4.438;2022-07-10T16:04:05;1.60;;;1.20;;
10769;SDS011;5437;50.852;4.438;2022-07-10T16:06:32;2.95;;;1.10;;
10769;SDS011;5437;50.852;4.438;2022-07-10T16:09:03;1.63;;;1.27;;
10769;SDS011;5437;50.852;4.438;2022-07-10T16:14:25;2.55;;;1.50;;
10769;SDS011;5437;50.852;4.438;2022-07-10T16:16:51;1.20;;;1.10;;
10769;SDS011;5437;50.852;4.438;2022-07-10T16:19:21;1.85;;;1.20;;
10769;SDS011;5437;50.852;4.438;2022-07-10T16:21:47;1.80;;;1.30;;
10769;SDS011;5437;50.852;4.438;2022-07-10T16:24:13;1.35;;;1.10;;
10769;SDS011;5437;50.852;4.438;2022-07-10T16:26:40;1.45;;;1.10;;
10769;SDS011;5437;50.852;4.438;2022-07-10T16:29:09;2.15;;;1.58;;
10769;SDS011;5437;50.852;4.438;2022-07-10T16:31:40;1.50;;;1.40;;
10769;SDS011;5437;50.852;4.438;2022-07-10T16:34:37;1.20;;;1.10;;
10769;SDS011;5437;50.852;4.438;2022-07-10T16:40:10;1.48;;;1.20;;
10769;SDS011;5437;50.852;4.438;2022-07-10T16:42:39;1.40;;;1.30;;
10769;SDS011;5437;50.852;4.438;2022-07-10T16:45:07;1.35;;;1.25;;
10769;SDS011;5437;50.852;4.438;2022-07-10T16:47:36;1.80;;;1.20;;
10769;SDS011;5437;50.852;4.438;2022-07-10T16:50:30;1.55;;;1.40;;
10769;SDS011;5437;50.852;4.438;2022-07-10T16:52:57;2.15;;;1.27;;
10769;SDS011;5437;50.852;4.438;2022-07-10T16:55:23;1.35;;;1.25;;
10769;SDS011;5437;50.852;4.438;2022-07-10T16:57:50;1.40;;;1.30;;
10769;SDS011;5437;50.852;4.438;2022-07-10T17:00:18;1.50;;;0.93;;
10769;SDS011;5437;50.852;4.438;2022-07-10T17:02:52;1.20;;;1.10;;
10769;SDS011;5437;50.852;4.438;2022-07-10T17:05:27;1.25;;;1.20;;
10769;SDS011;5437;50.852;4.438;2022-07-10T17:07:56;1.23;;;1.08;;
10769;SDS011;5437;50.852;4.438;2022-07-10T17:13:10;1.45;;;1.30;;